createdAt,value
2023-02-19T00:00:39.928Z,100975.78
2023-02-19T00:05:45.973Z,101051.22
2023-02-19T00:10:41.234Z,100887.84
2023-02-19T00:15:35.133Z,101069.47
2023-02-19T00:20:33.337Z,101003.06
2023-02-19T00:25:54.332Z,100857.47
2023-02-19T00:30:54.417Z,100836.25
2023-02-19T00:35:52.411Z,100843.66
2023-02-19T00:41:03.814Z,100878.69
2023-02-19T00:46:02.660Z,100888.66
2023-02-19T00:51:05.613Z,101042.69
2023-02-19T00:56:19.079Z,100935.06
2023-02-19T01:01:29.085Z,100815.78
2023-02-19T01:06:25.603Z,101034.69
2023-02-19T01:11:26.922Z,101003.31
2023-02-19T01:16:44.876Z,101038.38
2023-02-19T01:21:44.033Z,100959.53
2023-02-19T01:26:42.262Z,101011.09
2023-02-19T01:31:45.479Z,100881.75
2023-02-19T01:36:39.241Z,100858.59
2023-02-19T01:41:40.387Z,100881.66
2023-02-19T01:46:57.723Z,101022.00
2023-02-19T01:52:00.559Z,100959.53
2023-02-19T01:56:57.359Z,101031.59
2023-02-19T02:01:53.956Z,100891.56
2023-02-19T02:06:53.239Z,100928.19
2023-02-19T02:11:54.097Z,100994.47
2023-02-19T02:16:59.052Z,100899.53
2023-02-19T02:22:15.860Z,101051.59
2023-02-19T02:27:29.629Z,101010.09
2023-02-19T02:32:28.552Z,101068.19
2023-02-19T02:37:29.800Z,101083.00
2023-02-19T02:42:29.442Z,101047.50
2023-02-19T02:47:56.083Z,101091.25
2023-02-19T02:53:10.863Z,100957.69
2023-02-19T02:58:07.860Z,101040.88
2023-02-19T03:03:07.526Z,101110.75
2023-02-19T03:08:08.104Z,100920.84
2023-02-19T03:13:19.548Z,101119.09
2023-02-19T03:18:32.884Z,101030.38
2023-02-19T03:23:51.555Z,100994.28
2023-02-19T03:29:04.349Z,100938.94
2023-02-19T03:34:06.579Z,100946.03
2023-02-19T03:39:15.189Z,100906.34
2023-02-19T03:44:15.921Z,101002.81
2023-02-19T03:49:23.868Z,100912.31
2023-02-19T03:54:30.742Z,100936.84
2023-02-19T03:59:38.223Z,100904.34
2023-02-19T04:04:40.917Z,101008.97
2023-02-19T04:09:39.962Z,101097.31
2023-02-19T04:15:00.011Z,100966.47
2023-02-19T04:20:45.661Z,101043.91
2023-02-19T04:25:45.905Z,101081.59
2023-02-19T04:30:42.081Z,100964.75
2023-02-19T04:35:41.880Z,101023.63
2023-02-19T04:46:52.406Z,101099.44
2023-02-19T04:51:57.322Z,101112.94
2023-02-19T04:56:52.500Z,101146.91
2023-02-19T05:02:08.883Z,101118.81
2023-02-19T05:07:04.746Z,100959.16
2023-02-19T05:11:58.085Z,101128.41
2023-02-19T05:16:58.278Z,100960.91
2023-02-19T05:21:55.228Z,100965.09
2023-02-19T05:26:52.881Z,101137.81
2023-02-19T05:31:46.412Z,101025.41
2023-02-19T05:36:40.696Z,101026.34
2023-02-19T05:41:45.232Z,101178.81
2023-02-19T05:46:55.917Z,101268.88
2023-02-19T05:52:01.215Z,101075.28
2023-02-19T05:56:54.963Z,101068.66
2023-02-19T06:01:56.527Z,101161.63
2023-02-19T06:06:52.313Z,101289.09
2023-02-19T06:11:55.113Z,101238.50
2023-02-19T06:16:49.619Z,101305.91
2023-02-19T06:21:43.194Z,101150.81
2023-02-19T06:26:39.929Z,101273.66
2023-02-19T06:31:35.381Z,101115.66
2023-02-19T06:36:39.636Z,101206.69
2023-02-19T06:41:42.088Z,101236.47
2023-02-19T06:46:35.743Z,101118.69
2023-02-19T06:51:30.390Z,101329.38
2023-02-19T06:56:26.964Z,101320.25
2023-02-19T07:01:21.872Z,101363.88
2023-02-19T07:06:14.922Z,101339.34
2023-02-19T07:11:09.874Z,101337.53
2023-02-19T07:16:05.633Z,101333.81
2023-02-19T07:21:04.052Z,101320.97
2023-02-19T07:25:57.247Z,101319.06
2023-02-19T07:30:51.796Z,101287.13
2023-02-19T07:35:47.381Z,101306.75
2023-02-19T07:40:41.114Z,101269.19
2023-02-19T07:45:34.342Z,101305.50
2023-02-19T07:50:28.792Z,101274.09
2023-02-19T07:55:21.853Z,101273.47
2023-02-19T08:00:15.771Z,101319.19
2023-02-19T08:05:10.848Z,101301.31
2023-02-19T08:10:23.775Z,101281.56
2023-02-19T08:15:16.953Z,101307.91
2023-02-19T08:20:11.509Z,101301.19
2023-02-19T08:25:06.463Z,101273.03
2023-02-19T08:29:59.831Z,101297.69
2023-02-19T08:34:53.070Z,101261.41
2023-02-19T08:39:49.140Z,101303.31
2023-02-19T08:44:43.622Z,101304.63
2023-02-19T08:49:36.817Z,101300.47
2023-02-19T08:54:30.083Z,101316.13
2023-02-19T08:59:23.890Z,101268.78
2023-02-19T09:04:18.542Z,101310.34
2023-02-19T09:09:11.979Z,101287.31
2023-02-19T09:14:07.620Z,101283.47
2023-02-19T09:19:00.776Z,101271.03
2023-02-19T09:23:55.378Z,101248.75
2023-02-19T09:28:48.583Z,101224.63
2023-02-19T09:33:45.672Z,101265.94
2023-02-19T09:38:40.003Z,101267.22
2023-02-19T09:43:35.362Z,101229.91
2023-02-19T09:48:28.560Z,101227.97
2023-02-19T09:53:25.115Z,101245.59
2023-02-19T09:58:30.046Z,101159.03
2023-02-19T10:03:33.349Z,101230.16
2023-02-19T10:08:26.735Z,101196.09
2023-02-19T10:13:25.448Z,101130.53
2023-02-19T10:18:23.012Z,101152.84
2023-02-19T10:23:18.504Z,101165.78
2023-02-19T10:28:16.030Z,101183.06
2023-02-19T10:33:12.580Z,101199.97
2023-02-19T10:38:08.475Z,101134.81
2023-02-19T10:43:05.371Z,101132.63
2023-02-19T10:47:58.957Z,101137.38
2023-02-19T10:52:54.670Z,101101.03
2023-02-19T10:57:50.435Z,101138.41
2023-02-19T11:02:46.064Z,101121.47
2023-02-19T11:07:46.689Z,101126.63
2023-02-19T11:12:42.085Z,101087.66
2023-02-19T11:17:35.785Z,101121.28
2023-02-19T11:22:33.759Z,100988.34
2023-02-19T11:27:27.255Z,101057.28
2023-02-19T11:32:31.824Z,101042.59
2023-02-19T11:37:25.501Z,101074.72
2023-02-19T11:42:42.945Z,101103.03
2023-02-19T11:47:56.937Z,101116.22
2023-02-19T11:53:02.448Z,101092.38
2023-02-19T11:58:14.445Z,101111.97
2023-02-19T12:03:46.941Z,101025.59
2023-02-19T12:09:14.153Z,101100.78
2023-02-19T12:14:42.513Z,101092.34
2023-02-19T12:19:53.499Z,101049.47
2023-02-19T12:25:04.903Z,101055.75
2023-02-19T12:30:18.148Z,100992.84
2023-02-19T12:35:41.635Z,101057.63
2023-02-19T12:40:49.393Z,101064.72
2023-02-19T12:45:48.376Z,101058.75
2023-02-19T12:50:43.126Z,101067.22
2023-02-19T12:55:42.092Z,101056.03
2023-02-19T13:00:40.713Z,101046.63
2023-02-19T13:05:45.554Z,101046.03
2023-02-19T13:10:43.462Z,101003.66
2023-02-19T13:15:41.838Z,101032.09
2023-02-19T13:20:41.641Z,100986.44
2023-02-19T13:25:47.371Z,101020.63
2023-02-19T13:30:55.699Z,100996.59
2023-02-19T13:36:13.049Z,101015.94
2023-02-19T13:41:18.847Z,100978.22
2023-02-19T13:46:17.002Z,100970.09
2023-02-19T13:51:49.304Z,100996.00
2023-02-19T13:56:45.297Z,100967.84
2023-02-19T14:02:12.677Z,101000.50
2023-02-19T14:07:34.949Z,100997.25
2023-02-19T14:12:34.065Z,100955.00
2023-02-19T14:17:29.727Z,100829.75
2023-02-19T14:23:01.833Z,100990.84
2023-02-19T14:27:56.997Z,100984.53
2023-02-19T14:33:02.775Z,100985.50
2023-02-19T14:38:05.421Z,100930.84
2023-02-19T14:43:01.200Z,100972.66
2023-02-19T14:47:57.615Z,100967.09
2023-02-19T14:52:55.322Z,100949.84
2023-02-19T14:57:53.669Z,100970.47
2023-02-19T15:02:46.937Z,100951.53
2023-02-19T15:07:45.278Z,100937.72
2023-02-19T15:12:45.999Z,100964.97
2023-02-19T15:17:42.349Z,100858.31
2023-02-19T15:22:35.849Z,100978.56
2023-02-19T15:27:29.160Z,100892.81
2023-02-19T15:32:26.553Z,100936.56
2023-02-19T15:37:21.871Z,100921.06
2023-02-19T15:42:19.788Z,100973.53
2023-02-19T15:47:22.104Z,100967.97
2023-02-19T15:52:26.847Z,100963.97
2023-02-19T15:57:25.686Z,100856.25
2023-02-19T16:02:22.121Z,100908.84
2023-02-19T16:07:28.693Z,100979.47
2023-02-19T16:12:24.993Z,100924.94
2023-02-19T16:17:23.266Z,100905.13
2023-02-19T16:22:21.112Z,100927.63
2023-02-19T16:27:31.596Z,100981.53
2023-02-19T16:32:25.263Z,100944.44
2023-02-19T16:37:35.791Z,100844.94
2023-02-19T16:42:30.571Z,100991.94
2023-02-19T16:47:35.118Z,101002.44
2023-02-19T16:52:28.803Z,100891.63
2023-02-19T16:57:23.086Z,100815.22
2023-02-19T17:02:22.343Z,100887.97
2023-02-19T17:07:20.081Z,100887.75
2023-02-19T17:12:19.308Z,101005.78
2023-02-19T17:17:12.684Z,100811.94
2023-02-19T17:22:08.216Z,100955.38
2023-02-19T17:27:01.668Z,100987.63
2023-02-19T17:31:55.051Z,100882.03
2023-02-19T17:36:49.894Z,100946.88
2023-02-19T17:41:48.525Z,100953.53
2023-02-19T17:46:42.816Z,100804.28
2023-02-19T17:51:36.292Z,100856.59
2023-02-19T17:56:32.626Z,100959.28
2023-02-19T18:01:27.522Z,100978.28
2023-02-19T18:06:21.442Z,100987.94
2023-02-19T18:11:15.064Z,100989.00
2023-02-19T18:16:09.993Z,100952.84
2023-02-19T18:21:09.912Z,100988.31
2023-02-19T18:26:03.657Z,100968.81
2023-02-19T18:30:57.039Z,100897.81
2023-02-19T18:35:50.822Z,100998.81
2023-02-19T18:40:49.294Z,100987.03
2023-02-19T18:45:47.555Z,100932.66
2023-02-19T18:50:48.033Z,100831.72
2023-02-19T18:55:42.856Z,100812.78
2023-02-19T19:00:40.348Z,100894.50
2023-02-19T19:05:45.698Z,100830.66
2023-02-19T19:10:44.739Z,100805.16
2023-02-19T19:15:42.557Z,101016.38
2023-02-19T19:20:37.773Z,100924.53
2023-02-19T19:25:33.401Z,100809.72
2023-02-19T19:30:29.232Z,100965.13
2023-02-19T19:35:33.124Z,100851.34
2023-02-19T19:40:32.692Z,100901.69
2023-02-19T19:45:26.237Z,100874.81
2023-02-19T19:50:29.127Z,101024.50
2023-02-19T19:55:24.973Z,100956.28
2023-02-19T20:00:20.300Z,100833.59
2023-02-19T20:05:25.478Z,100993.78
2023-02-19T20:10:23.053Z,101062.16
2023-02-19T20:15:22.989Z,101071.34
2023-02-19T20:20:18.616Z,100955.88
2023-02-19T20:25:14.418Z,100964.81
2023-02-19T20:30:14.099Z,100992.41
2023-02-19T20:35:28.909Z,101011.00
2023-02-19T20:40:48.758Z,101063.50
2023-02-19T20:46:04.330Z,101077.69
2023-02-19T20:51:31.893Z,101057.91
2023-02-19T20:57:00.587Z,100888.19
2023-02-19T21:02:00.212Z,101001.09
2023-02-19T21:07:19.459Z,100887.66
2023-02-19T21:12:56.669Z,100862.69
2023-02-19T21:18:28.801Z,101002.56
2023-02-19T21:24:07.634Z,100990.13
2023-02-19T21:29:21.539Z,100893.75
2023-02-19T21:35:00.152Z,101108.72
2023-02-19T21:45:11.936Z,101036.38
2023-02-19T21:50:11.524Z,100947.34
2023-02-19T21:55:05.798Z,100925.56
2023-02-19T21:59:59.386Z,100932.44
2023-02-19T22:04:54.791Z,100972.31
2023-02-19T22:09:52.680Z,101115.72
2023-02-19T22:14:55.166Z,101019.94
2023-02-19T22:19:50.923Z,101121.50
2023-02-19T22:24:45.295Z,100947.47
2023-02-19T22:29:41.278Z,100930.44
2023-02-19T22:34:37.703Z,101060.78
2023-02-19T22:39:33.847Z,101076.34
2023-02-19T22:44:27.534Z,101086.00
2023-02-19T22:49:25.339Z,100909.16
2023-02-19T22:54:26.947Z,101062.94
2023-02-19T22:59:52.952Z,100982.50
2023-02-19T23:04:47.900Z,101036.63
2023-02-19T23:09:44.423Z,100928.38
2023-02-19T23:14:38.554Z,101033.38
2023-02-19T23:19:35.425Z,101078.72
2023-02-19T23:24:30.923Z,101050.72
2023-02-19T23:29:26.577Z,101119.09
2023-02-19T23:34:20.713Z,101080.72
2023-02-19T23:39:16.374Z,101006.25
2023-02-19T23:44:16.180Z,100956.25
2023-02-19T23:49:09.503Z,101061.41
2023-02-19T23:54:11.846Z,100988.56
2023-02-19T23:59:07.578Z,101081.81
